Time;durP1;ratioP1;P1;durP2;ratioP2;P2;SDS_P1;SDS_P2;PMS_P1;PMS_P2;Temp;Humidity;BMP_temperature;BMP_pressure;BME280_temperature;BME280_humidity;BME280_pressure;Samples;Min_cycle;Max_cycle;Signal;HPM_P1;HPM_P2
2023/12/29 00:01:59;;;;;;;3.53;1.63;;;9.70;99.90;;;;;;5045476;28;20481;-66
2023/12/29 00:04:26;;;;;;;1.52;1.13;;;9.70;99.90;;;;;;5044995;28;20021;-66
2023/12/29 00:06:52;;;;;;;1.05;0.80;;;9.60;99.90;;;;;;5047022;28;20477;-65
2023/12/29 00:09:21;;;;;;;2.50;1.23;;;9.50;99.90;;;;;;5042672;28;20044;-65
2023/12/29 00:11:50;;;;;;;6.28;1.40;;;9.50;99.90;;;;;;5043146;28;20037;-65
2023/12/29 00:14:17;;;;;;;4.22;2.13;;;9.50;99.90;;;;;;5042274;28;20018;-66
2023/12/29 00:16:44;;;;;;;2.72;1.60;;;9.50;99.90;;;;;;5045824;28;20108;-66
2023/12/29 00:19:11;;;;;;;2.80;1.23;;;9.50;99.90;;;;;;5043569;28;20036;-66
2023/12/29 00:21:38;;;;;;;1.42;1.10;;;9.50;99.90;;;;;;5045803;28;20495;-66
2023/12/29 00:24:05;;;;;;;2.08;1.33;;;9.50;99.90;;;;;;5044439;28;20120;-65
2023/12/29 00:26:31;;;;;;;3.10;2.13;;;9.50;99.90;;;;;;5046125;28;20093;-65
2023/12/29 00:28:57;;;;;;;3.30;1.48;;;9.50;99.90;;;;;;5045237;28;20111;-65
2023/12/29 00:31:23;;;;;;;1.40;1.15;;;9.50;99.90;;;;;;5044445;28;20060;-65
2023/12/29 00:33:51;;;;;;;2.95;1.98;;;9.60;99.90;;;;;;5046105;28;20067;-65
2023/12/29 00:36:19;;;;;;;10.60;1.73;;;9.60;99.90;;;;;;5046373;28;20119;-65
2023/12/29 00:38:45;;;;;;;3.00;1.33;;;9.60;99.90;;;;;;5045550;28;20037;-66
2023/12/29 00:41:11;;;;;;;1.30;0.90;;;9.70;99.90;;;;;;5045539;28;20043;-65
2023/12/29 00:43:36;;;;;;;1.45;1.08;;;9.70;99.90;;;;;;5045543;28;20093;-68
2023/12/29 00:46:04;;;;;;;2.90;1.70;;;9.70;99.90;;;;;;5046380;28;20033;-66
2023/12/29 00:48:31;;;;;;;2.20;1.52;;;9.80;99.90;;;;;;5043348;28;20117;-66
2023/12/29 00:50:56;;;;;;;5.47;2.20;;;9.80;99.90;;;;;;5046019;28;20020;-66
2023/12/29 00:53:22;;;;;;;1.27;0.50;;;9.80;99.90;;;;;;5043433;28;20036;-66
2023/12/29 00:55:48;;;;;;;1.35;1.15;;;9.80;99.90;;;;;;5046573;28;20025;-66
2023/12/29 00:58:16;;;;;;;3.45;2.15;;;9.90;99.90;;;;;;5044203;28;20034;-66
2023/12/29 01:00:42;;;;;;;5.18;1.30;;;9.90;99.90;;;;;;5049354;28;20182;-67
2023/12/29 01:03:08;;;;;;;1.75;1.05;;;9.80;99.90;;;;;;5042457;28;20112;-65
2023/12/29 01:05:34;;;;;;;0.90;0.70;;;9.80;99.90;;;;;;5046185;28;20037;-66
2023/12/29 01:07:59;;;;;;;3.10;1.42;;;9.80;99.90;;;;;;5044765;28;20036;-66
2023/12/29 01:10:28;;;;;;;1.10;1.00;;;9.80;99.90;;;;;;5044725;28;20435;-65
2023/12/29 01:12:53;;;;;;;2.38;1.55;;;9.80;99.90;;;;;;5046721;28;20048;-66
2023/12/29 01:15:19;;;;;;;8.98;1.75;;;9.80;99.90;;;;;;5042335;28;20075;-66
2023/12/29 01:17:45;;;;;;;4.68;1.60;;;9.80;99.90;;;;;;5044061;28;20420;-66
2023/12/29 01:20:10;;;;;;;1.88;1.00;;;9.80;99.90;;;;;;5042259;28;20033;-66
2023/12/29 01:22:36;;;;;;;11.32;1.70;;;9.80;99.90;;;;;;5044788;28;20063;-66
2023/12/29 01:25:02;;;;;;;2.90;1.88;;;9.90;99.90;;;;;;5044894;28;20626;-66
2023/12/29 01:27:29;;;;;;;2.25;1.42;;;9.80;99.90;;;;;;5045082;28;20043;-66
2023/12/29 01:29:55;;;;;;;3.95;2.45;;;9.80;99.90;;;;;;5043131;28;20108;-66
2023/12/29 01:32:21;;;;;;;3.58;1.52;;;9.70;99.90;;;;;;5046804;28;20131;-66
2023/12/29 01:34:47;;;;;;;4.40;1.40;;;9.80;99.90;;;;;;5058661;28;20503;-66
2023/12/29 01:37:13;;;;;;;2.40;1.42;;;9.80;99.90;;;;;;5059385;28;20061;-65
2023/12/29 01:39:40;;;;;;;1.48;1.05;;;9.80;99.90;;;;;;5044703;28;20470;-66
2023/12/29 01:42:06;;;;;;;1.08;0.98;;;9.70;99.90;;;;;;5044518;28;20025;-68
2023/12/29 01:44:33;;;;;;;3.10;1.67;;;9.70;99.90;;;;;;5042886;28;20018;-66
2023/12/29 01:47:05;;;;;;;3.42;1.90;;;9.60;99.90;;;;;;5045866;28;20036;-66
2023/12/29 01:49:33;;;;;;;3.05;1.85;;;9.60;99.90;;;;;;5041530;28;20049;-66
2023/12/29 01:52:00;;;;;;;2.35;1.33;;;9.60;99.90;;;;;;5041260;28;20021;-66
2023/12/29 01:54:34;;;;;;;2.15;1.30;;;9.60;99.90;;;;;;5040682;28;20354;-66
2023/12/29 01:57:02;;;;;;;2.50;1.63;;;9.60;99.90;;;;;;5046124;28;20072;-66
2023/12/29 01:59:29;;;;;;;2.38;1.60;;;9.60;99.90;;;;;;5042022;28;20376;-66
2023/12/29 02:01:55;;;;;;;6.15;1.73;;;9.50;99.90;;;;;;5049410;28;20466;-66
2023/12/29 02:04:25;;;;;;;4.80;1.88;;;9.40;99.90;;;;;;5031988;28;20525;-66
2023/12/29 02:06:51;;;;;;;3.45;1.63;;;9.50;99.90;;;;;;5048587;28;20453;-66
2023/12/29 02:09:18;;;;;;;1.42;0.90;;;9.50;99.90;;;;;;5048673;28;20029;-66
2023/12/29 02:11:48;;;;;;;5.75;1.83;;;9.50;99.90;;;;;;5048489;28;20770;-66
2023/12/29 02:14:15;;;;;;;9.98;1.63;;;9.50;99.90;;;;;;5051728;28;20436;-66
2023/12/29 02:17:13;;;;;;;9.18;1.30;;;9.60;99.90;;;;;;5050267;28;20108;-66
2023/12/29 02:19:43;;;;;;;3.30;1.25;;;9.60;99.90;;;;;;5062607;28;20033;-66
2023/12/29 02:22:10;;;;;;;1.35;1.05;;;9.70;99.90;;;;;;5067202;28;20033;-65
2023/12/29 02:24:37;;;;;;;1.23;0.93;;;9.70;99.90;;;;;;5046110;28;20025;-65
2023/12/29 02:27:41;;;;;;;2.65;1.33;;;9.60;99.90;;;;;;5051115;28;20057;-65
2023/12/29 02:30:41;;;;;;;2.45;1.10;;;9.60;99.90;;;;;;5063545;28;20041;-65
2023/12/29 02:33:13;;;;;;;1.70;0.95;;;9.70;99.90;;;;;;5050717;28;20123;-66
2023/12/29 02:35:43;;;;;;;1.88;0.90;;;9.70;99.90;;;;;;5050826;28;20029;-65
2023/12/29 02:38:11;;;;;;;3.80;1.88;;;9.70;99.90;;;;;;5050772;28;20033;-66
2023/12/29 02:40:37;;;;;;;0.50;0.50;;;9.70;99.90;;;;;;5049022;28;20028;-66
2023/12/29 02:43:05;;;;;;;1.13;0.93;;;9.80;99.90;;;;;;5050789;28;20078;-66
2023/12/29 02:45:31;;;;;;;1.38;0.93;;;9.80;99.90;;;;;;5048980;28;20032;-66
2023/12/29 02:47:57;;;;;;;1.60;0.93;;;9.80;99.90;;;;;;5051949;28;20063;-66
2023/12/29 02:50:23;;;;;;;2.85;1.55;;;9.80;99.90;;;;;;5047378;28;20373;-66
2023/12/29 02:52:48;;;;;;;0.88;0.70;;;9.80;99.90;;;;;;5046219;28;20108;-66
2023/12/29 02:55:14;;;;;;;1.50;1.17;;;9.70;99.90;;;;;;5048649;28;20033;-66
2023/12/29 02:57:40;;;;;;;2.50;1.38;;;9.70;99.90;;;;;;5050965;28;20034;-66
2023/12/29 03:00:07;;;;;;;5.82;1.10;;;9.80;99.90;;;;;;5047995;28;20037;-65
2023/12/29 03:02:33;;;;;;;3.92;1.02;;;9.90;99.90;;;;;;5051256;28;20020;-65
2023/12/29 03:04:59;;;;;;;8.35;1.40;;;9.80;99.90;;;;;;5045598;28;20032;-66
2023/12/29 03:07:24;;;;;;;1.33;0.82;;;9.90;99.90;;;;;;5051573;28;20492;-66
2023/12/29 03:09:50;;;;;;;2.65;1.65;;;10.00;99.90;;;;;;5046202;28;20033;-66
2023/12/29 03:12:16;;;;;;;1.10;0.82;;;9.90;99.90;;;;;;5050657;28;20067;-66
2023/12/29 03:14:43;;;;;;;2.60;1.33;;;9.90;99.90;;;;;;5046859;28;20032;-66
2023/12/29 03:17:09;;;;;;;1.25;0.80;;;9.80;99.90;;;;;;5065145;28;20029;-66
2023/12/29 03:19:35;;;;;;;0.85;0.65;;;9.90;99.90;;;;;;5049553;28;20021;-66
2023/12/29 03:22:04;;;;;;;1.38;1.00;;;9.90;99.90;;;;;;5031886;28;20032;-64
2023/12/29 03:24:33;;;;;;;0.90;0.75;;;9.90;99.90;;;;;;5050914;28;20025;-66
2023/12/29 03:27:01;;;;;;;2.08;0.85;;;9.90;99.90;;;;;;5049192;28;20082;-66
2023/12/29 03:29:26;;;;;;;1.85;0.57;;;9.80;99.90;;;;;;5049652;28;20031;-67
2023/12/29 03:31:52;;;;;;;1.65;0.75;;;9.90;99.90;;;;;;5048729;28;20104;-65
2023/12/29 03:34:19;;;;;;;2.67;1.38;;;9.90;99.90;;;;;;5051243;28;20400;-65
2023/12/29 03:36:45;;;;;;;0.68;0.63;;;10.00;99.90;;;;;;5050117;28;20513;-66
2023/12/29 03:39:11;;;;;;;3.03;1.48;;;9.90;99.90;;;;;;5051089;28;20144;-66
2023/12/29 03:41:36;;;;;;;2.70;0.80;;;10.00;99.90;;;;;;5047903;28;20457;-65
2023/12/29 03:44:03;;;;;;;2.08;0.90;;;10.00;99.90;;;;;;5049001;28;20033;-65
2023/12/29 03:46:28;;;;;;;0.98;0.60;;;10.00;99.90;;;;;;5047974;28;20028;-65
2023/12/29 03:48:54;;;;;;;1.52;1.08;;;10.00;99.90;;;;;;5049835;28;20080;-65
2023/12/29 03:51:20;;;;;;;1.60;1.02;;;10.00;99.90;;;;;;5047936;28;20033;-66
2023/12/29 03:53:46;;;;;;;1.15;0.80;;;10.10;99.90;;;;;;5050694;28;20021;-66
2023/12/29 03:56:17;;;;;;;7.07;1.30;;;10.10;99.90;;;;;;5048744;28;20029;-66
2023/12/29 03:58:47;;;;;;;0.95;0.63;;;10.10;99.90;;;;;;5049188;28;20025;-66
2023/12/29 04:01:15;;;;;;;1.95;0.90;;;10.10;99.90;;;;;;5048292;28;20086;-66
2023/12/29 04:03:41;;;;;;;1.73;0.70;;;10.20;99.90;;;;;;5049325;28;20033;-66
2023/12/29 04:06:08;;;;;;;1.90;0.80;;;10.20;99.90;;;;;;5049777;28;20447;-66
2023/12/29 04:08:38;;;;;;;2.45;0.95;;;10.20;99.90;;;;;;5047116;28;20452;-65
2023/12/29 04:11:04;;;;;;;1.45;1.00;;;10.20;99.90;;;;;;5048655;28;20029;-66
2023/12/29 04:13:31;;;;;;;2.38;0.90;;;10.30;99.90;;;;;;5049774;28;20357;-66
2023/12/29 04:15:57;;;;;;;1.52;1.00;;;10.30;99.90;;;;;;5047422;28;20025;-66
2023/12/29 04:18:24;;;;;;;1.20;0.80;;;10.30;99.90;;;;;;5047309;28;20028;-67
2023/12/29 04:20:50;;;;;;;0.82;0.70;;;10.30;99.90;;;;;;5047123;28;20033;-66
2023/12/29 04:23:16;;;;;;;1.88;0.77;;;10.30;99.90;;;;;;5050149;28;20112;-66
2023/12/29 04:25:42;;;;;;;1.92;0.55;;;10.20;99.90;;;;;;5047743;28;20041;-66
2023/12/29 04:28:08;;;;;;;1.10;0.80;;;10.20;99.90;;;;;;5050770;28;20028;-66
2023/12/29 04:30:35;;;;;;;1.67;1.17;;;10.20;99.90;;;;;;5049209;28;20037;-66
2023/12/29 04:33:00;;;;;;;0.77;0.60;;;10.20;99.90;;;;;;5050608;28;20025;-66
2023/12/29 04:35:26;;;;;;;4.50;1.48;;;10.10;99.90;;;;;;5046899;28;20037;-66
2023/12/29 04:37:52;;;;;;;0.15;0.15;;;10.00;99.90;;;;;;5051596;28;20099;-66
2023/12/29 04:40:18;;;;;;;4.57;0.98;;;9.90;99.90;;;;;;5048229;28;20032;-66
2023/12/29 04:42:43;;;;;;;1.58;0.70;;;10.00;99.90;;;;;;5050546;28;20025;-66
2023/12/29 04:45:10;;;;;;;3.13;1.48;;;10.00;99.90;;;;;;5046603;28;20041;-66
2023/12/29 04:47:36;;;;;;;3.97;1.33;;;10.00;99.90;;;;;;5049525;28;20025;-66
2023/12/29 04:50:03;;;;;;;5.50;0.82;;;10.00;99.90;;;;;;5046817;28;20040;-67
2023/12/29 04:52:29;;;;;;;2.80;1.13;;;9.90;99.90;;;;;;5050729;28;20021;-65
2023/12/29 04:54:54;;;;;;;1.20;0.73;;;10.00;99.90;;;;;;5048726;28;20036;-65
2023/12/29 04:57:20;;;;;;;2.38;1.13;;;10.00;99.90;;;;;;5050264;28;20100;-65
2023/12/29 04:59:46;;;;;;;2.58;0.80;;;9.90;99.90;;;;;;5046686;28;20085;-66
2023/12/29 05:02:12;;;;;;;0.52;0.43;;;9.90;99.90;;;;;;5045399;28;20036;-66
2023/12/29 05:04:38;;;;;;;1.80;1.30;;;10.00;99.90;;;;;;5050781;28;20017;-66
2023/12/29 05:07:08;;;;;;;1.30;0.88;;;9.90;99.90;;;;;;5047414;28;20092;-66
2023/12/29 05:09:34;;;;;;;6.57;1.23;;;10.00;99.90;;;;;;5049821;28;20025;-65
2023/12/29 05:12:00;;;;;;;1.33;0.95;;;9.90;99.90;;;;;;5047447;28;20033;-65
2023/12/29 05:14:25;;;;;;;1.08;0.98;;;9.80;99.90;;;;;;5042704;28;20032;-65
2023/12/29 05:16:51;;;;;;;3.38;1.77;;;9.60;99.90;;;;;;5049207;28;20104;-65
2023/12/29 05:19:17;;;;;;;1.65;1.25;;;8.80;99.90;;;;;;5050506;28;20227;-66
2023/12/29 05:21:43;;;;;;;2.38;1.52;;;8.50;99.90;;;;;;5048788;28;20021;-66
2023/12/29 05:24:09;;;;;;;2.53;1.55;;;8.40;99.90;;;;;;5048189;28;20021;-66
2023/12/29 05:26:34;;;;;;;4.05;1.20;;;8.20;99.90;;;;;;5050249;28;20021;-66
2023/12/29 05:29:00;;;;;;;2.47;1.65;;;8.20;99.90;;;;;;5049346;28;20025;-66
2023/12/29 05:31:26;;;;;;;6.20;1.92;;;8.10;99.90;;;;;;5045889;28;20047;-66
2023/12/29 05:33:51;;;;;;;2.53;1.75;;;8.00;99.90;;;;;;5055314;28;20503;-66
2023/12/29 05:36:17;;;;;;;4.90;1.95;;;7.90;99.90;;;;;;5052362;28;20487;-66
2023/12/29 05:38:46;;;;;;;1.95;1.50;;;7.90;99.90;;;;;;5036637;28;20448;-66
2023/12/29 05:41:15;;;;;;;3.97;1.83;;;7.90;99.90;;;;;;5053559;28;20095;-66
2023/12/29 05:43:42;;;;;;;3.75;2.22;;;7.90;99.90;;;;;;5055275;28;20024;-66
2023/12/29 05:46:11;;;;;;;2.08;1.70;;;7.80;99.90;;;;;;5031709;28;20123;-67
2023/12/29 05:48:38;;;;;;;5.70;1.75;;;7.80;99.90;;;;;;5054758;28;20201;-66
2023/12/29 05:51:13;;;;;;;2.83;1.67;;;7.80;99.90;;;;;;5052912;28;20456;-66
2023/12/29 05:53:43;;;;;;;2.60;1.73;;;7.90;99.90;;;;;;5053764;28;20033;-66
2023/12/29 05:56:12;;;;;;;10.32;1.98;;;7.90;99.90;;;;;;5053401;28;20112;-66
2023/12/29 05:58:43;;;;;;;5.18;2.50;;;7.90;99.90;;;;;;5054948;28;20033;-66
2023/12/29 06:01:09;;;;;;;2.87;2.10;;;7.90;99.90;;;;;;5048322;28;20108;-66
2023/12/29 06:03:35;;;;;;;4.55;1.85;;;7.90;99.90;;;;;;5034786;28;20695;-66
2023/12/29 06:06:02;;;;;;;3.95;2.35;;;7.90;99.90;;;;;;5048285;28;20133;-66
2023/12/29 06:08:27;;;;;;;6.40;2.90;;;7.80;99.90;;;;;;5054650;28;20041;-66
2023/12/29 06:10:53;;;;;;;5.18;1.77;;;7.80;99.90;;;;;;5052822;28;20526;-66
2023/12/29 06:13:19;;;;;;;3.03;2.13;;;7.90;99.90;;;;;;5054719;28;20425;-66
2023/12/29 06:15:44;;;;;;;3.00;2.00;;;7.90;99.90;;;;;;5047915;28;21543;-66
2023/12/29 06:18:10;;;;;;;3.50;1.65;;;8.00;99.90;;;;;;5054606;28;20473;-66
2023/12/29 06:20:36;;;;;;;1.83;1.30;;;8.00;99.90;;;;;;5047655;28;20041;-66
2023/12/29 06:23:02;;;;;;;3.47;1.75;;;8.10;99.90;;;;;;5054588;28;20096;-66
2023/12/29 06:25:28;;;;;;;3.72;2.35;;;8.10;99.90;;;;;;5049754;28;20037;-66
2023/12/29 06:27:54;;;;;;;3.85;2.05;;;8.10;99.90;;;;;;5054738;28;20624;-66
2023/12/29 06:30:20;;;;;;;3.80;1.65;;;8.10;99.90;;;;;;5048703;28;20044;-66
2023/12/29 06:32:46;;;;;;;1.50;1.27;;;8.10;99.90;;;;;;5068796;28;20037;-66
2023/12/29 06:35:13;;;;;;;2.85;1.77;;;8.20;99.90;;;;;;5049274;28;20504;-66
2023/12/29 06:37:40;;;;;;;2.38;1.33;;;8.50;99.90;;;;;;5048002;28;20396;-66
2023/12/29 06:40:07;;;;;;;1.77;1.25;;;8.60;99.90;;;;;;5050699;28;20049;-66
2023/12/29 06:42:33;;;;;;;3.67;1.23;;;8.80;99.90;;;;;;5044482;28;20026;-66
2023/12/29 06:44:59;;;;;;;1.95;1.00;;;8.90;99.90;;;;;;5050907;28;20098;-66
2023/12/29 06:47:24;;;;;;;1.65;1.00;;;9.00;99.90;;;;;;5065808;28;20690;-66
2023/12/29 06:49:50;;;;;;;2.20;1.02;;;9.00;99.90;;;;;;5047600;28;20025;-66
2023/12/29 06:52:17;;;;;;;2.30;1.70;;;9.20;99.90;;;;;;5048597;28;20044;-66
2023/12/29 06:54:42;;;;;;;1.50;1.10;;;9.20;99.90;;;;;;5034176;28;20034;-66
2023/12/29 06:57:08;;;;;;;0.75;0.47;;;9.30;99.90;;;;;;5061525;28;20114;-66
2023/12/29 06:59:34;;;;;;;1.80;0.95;;;9.50;99.90;;;;;;5051561;28;20154;-64
2023/12/29 07:02:00;;;;;;;1.08;0.82;;;9.80;99.90;;;;;;5043098;28;20100;-64
2023/12/29 07:04:26;;;;;;;0.75;0.63;;;9.90;99.90;;;;;;5053364;28;20029;-65
2023/12/29 07:06:53;;;;;;;1.48;0.80;;;10.00;99.90;;;;;;5051941;28;20032;-63
2023/12/29 07:09:19;;;;;;;0.75;0.45;;;10.10;99.90;;;;;;5053924;28;20033;-64
2023/12/29 07:11:49;;;;;;;0.73;0.52;;;10.20;99.90;;;;;;5051157;28;20032;-64
2023/12/29 07:14:15;;;;;;;3.58;0.82;;;10.30;99.90;;;;;;5053484;28;20032;-64
2023/12/29 07:16:41;;;;;;;1.10;0.70;;;10.40;99.90;;;;;;5046953;28;20144;-64
2023/12/29 07:19:07;;;;;;;1.15;0.50;;;10.40;99.90;;;;;;5053470;28;20113;-65
2023/12/29 07:21:32;;;;;;;1.17;0.70;;;10.40;99.90;;;;;;5046447;28;20048;-64
2023/12/29 07:23:58;;;;;;;0.75;0.52;;;10.40;99.90;;;;;;5044173;28;20107;-64
2023/12/29 07:26:24;;;;;;;1.10;0.50;;;10.50;99.90;;;;;;5043608;28;20480;-64
2023/12/29 07:49:49;;;;;;;2.03;0.83;;;10.40;99.90;;;;;;4972607;28;20061;-65
2023/12/29 07:52:14;;;;;;;1.60;0.93;;;10.40;99.90;;;;;;4977663;28;20469;-65
2023/12/29 07:54:40;;;;;;;1.25;0.57;;;10.40;99.90;;;;;;4984638;28;20030;-65
2023/12/29 07:57:06;;;;;;;0.95;0.50;;;10.40;99.90;;;;;;5028667;28;20040;-66
2023/12/29 07:59:32;;;;;;;1.92;0.73;;;10.40;99.90;;;;;;5009331;28;20031;-66
2023/12/29 08:01:57;;;;;;;1.08;0.60;;;10.50;99.90;;;;;;4984968;28;20662;-65
2023/12/29 08:04:23;;;;;;;1.80;0.68;;;10.60;99.90;;;;;;4978677;28;20043;-65
2023/12/29 08:06:49;;;;;;;0.77;0.43;;;10.60;99.90;;;;;;4891533;28;20510;-65
2023/12/29 08:09:15;;;;;;;1.58;0.70;;;10.60;99.90;;;;;;4849996;29;20048;-67
2023/12/29 08:11:42;;;;;;;0.82;0.55;;;10.60;99.90;;;;;;4854609;29;20025;-67
2023/12/29 08:14:08;;;;;;;3.97;0.70;;;10.60;99.90;;;;;;4844342;29;20034;-65
2023/12/29 08:16:41;;;;;;;1.35;0.60;;;10.60;99.90;;;;;;4856002;29;20761;-65
2023/12/29 08:19:07;;;;;;;1.10;0.45;;;10.60;99.90;;;;;;4840447;29;20045;-65
2023/12/29 08:21:33;;;;;;;1.30;1.00;;;10.70;99.90;;;;;;4851849;29;20120;-66
2023/12/29 08:23:59;;;;;;;0.82;0.52;;;10.70;99.90;;;;;;4842111;29;20036;-66
2023/12/29 08:26:25;;;;;;;1.55;0.82;;;10.70;99.90;;;;;;4852414;29;20037;-65
2023/12/29 08:28:51;;;;;;;2.00;1.17;;;10.60;99.90;;;;;;4842885;29;20060;-66
2023/12/29 08:31:19;;;;;;;1.98;1.40;;;10.40;99.90;;;;;;4842039;29;20498;-65
2023/12/29 08:33:45;;;;;;;1.40;1.05;;;10.10;99.90;;;;;;4841790;29;20486;-66
2023/12/29 08:36:12;;;;;;;1.95;1.15;;;9.80;99.90;;;;;;4850965;29;20393;-70
2023/12/29 08:38:38;;;;;;;2.63;1.50;;;9.60;99.90;;;;;;4840257;29;20116;-70
2023/12/29 08:41:04;;;;;;;2.53;1.05;;;9.50;99.90;;;;;;4840588;29;20041;-70
2023/12/29 08:43:30;;;;;;;4.13;1.98;;;9.50;99.90;;;;;;4839941;29;20083;-70
2023/12/29 08:45:57;;;;;;;4.68;2.17;;;9.40;99.90;;;;;;4847701;29;20078;-70
2023/12/29 08:48:23;;;;;;;3.00;1.55;;;9.40;99.90;;;;;;4844321;29;20490;-70
2023/12/29 08:50:49;;;;;;;2.53;1.33;;;9.40;99.90;;;;;;4848549;29;20048;-70
2023/12/29 08:53:18;;;;;;;2.85;0.98;;;9.40;99.90;;;;;;4847485;29;20033;-69
2023/12/29 08:55:44;;;;;;;4.00;1.42;;;9.40;99.90;;;;;;4847351;29;20092;-70
2023/12/29 08:58:09;;;;;;;1.38;0.98;;;9.50;99.90;;;;;;4847686;29;20427;-71
2023/12/29 09:00:35;;;;;;;3.33;1.33;;;9.50;99.90;;;;;;4846559;29;20048;-70
2023/12/29 09:03:01;;;;;;;2.80;1.35;;;9.50;99.90;;;;;;4851440;29;20030;-70
2023/12/29 09:29:13;;;;;;;3.53;1.45;;;9.60;99.90;;;;;;4701993;30;20557;-68
2023/12/29 09:31:39;;;;;;;3.72;1.73;;;9.70;99.90;;;;;;4728424;30;20049;-68
2023/12/29 09:34:04;;;;;;;2.65;1.60;;;9.60;99.90;;;;;;4709710;30;20060;-69
2023/12/29 09:36:30;;;;;;;2.05;1.35;;;9.60;99.90;;;;;;4713707;30;20554;-68
2023/12/29 09:38:56;;;;;;;3.20;1.40;;;9.60;99.90;;;;;;4713247;30;20508;-65
2023/12/29 09:41:28;;;;;;;5.68;2.00;;;9.70;99.90;;;;;;4713435;30;20049;-65
2023/12/29 09:43:54;;;;;;;6.03;1.58;;;9.70;99.90;;;;;;4714029;30;20071;-64
2023/12/29 09:46:23;;;;;;;2.90;1.35;;;9.70;99.90;;;;;;4711326;30;20053;-64
2023/12/29 09:48:52;;;;;;;2.10;1.17;;;9.70;99.90;;;;;;4710026;30;20458;-64
2023/12/29 09:51:22;;;;;;;2.67;1.40;;;9.70;99.90;;;;;;4720952;30;20037;-64
2023/12/29 09:53:49;;;;;;;3.60;2.10;;;9.80;99.90;;;;;;4707331;30;20309;-64
2023/12/29 09:56:16;;;;;;;3.28;1.55;;;9.80;99.90;;;;;;4718936;30;20047;-64
2023/12/29 09:58:43;;;;;;;4.20;2.00;;;9.90;99.90;;;;;;4713000;30;20049;-64
2023/12/29 10:01:09;;;;;;;2.80;1.40;;;10.00;99.90;;;;;;4712776;30;20037;-66
2023/12/29 10:03:35;;;;;;;5.57;2.42;;;10.00;99.90;;;;;;4712936;30;20036;-64
2023/12/29 10:06:08;;;;;;;2.17;1.35;;;10.10;99.90;;;;;;4706768;30;20045;-64
2023/12/29 10:08:36;;;;;;;4.25;2.10;;;10.10;99.90;;;;;;4731763;30;20032;-64
2023/12/29 10:11:05;;;;;;;4.68;2.00;;;10.10;99.90;;;;;;4758327;30;20040;-65
2023/12/29 10:13:35;;;;;;;4.18;2.13;;;10.10;99.90;;;;;;4759027;30;20493;-65
2023/12/29 10:16:11;;;;;;;3.50;1.60;;;10.20;99.90;;;;;;4762730;30;20050;-65
2023/12/29 10:19:15;;;;;;;2.17;1.33;;;10.10;99.90;;;;;;4763561;30;20070;-65
2023/12/29 10:21:58;;;;;;;0.40;0.35;;;10.20;99.90;;;;;;4764684;30;20032;-65
2023/12/29 10:24:24;;;;;;;3.10;0.57;;;10.70;99.90;;;;;;4752100;30;20048;-65
2023/12/29 10:26:53;;;;;;;0.50;0.30;;;11.10;99.90;;;;;;4750650;30;20036;-65
2023/12/29 10:29:20;;;;;;;3.40;0.75;;;11.30;99.90;;;;;;4762434;30;20032;-65
2023/12/29 10:31:46;;;;;;;3.55;1.77;;;11.50;99.90;;;;;;4763362;30;20040;-64
2023/12/29 10:34:31;;;;;;;0.20;0.15;;;11.70;99.90;;;;;;4752440;30;20048;-65
2023/12/29 10:36:58;;;;;;;3.40;0.50;;;11.70;99.90;;;;;;4757462;30;20044;-65
2023/12/29 10:39:25;;;;;;;1.92;0.43;;;11.80;99.90;;;;;;4760289;30;20111;-66
2023/12/29 10:42:05;;;;;;;0.38;0.30;;;12.00;99.90;;;;;;4753180;30;20093;-66
2023/12/29 10:44:31;;;;;;;0.45;0.35;;;12.00;99.90;;;;;;4748233;30;20378;-66
2023/12/29 10:46:57;;;;;;;6.35;0.52;;;12.00;99.90;;;;;;4751881;30;20043;-65
2023/12/29 10:49:22;;;;;;;0.95;0.47;;;12.00;99.90;;;;;;4764663;30;20577;-65
2023/12/29 10:51:48;;;;;;;1.92;0.47;;;12.00;99.90;;;;;;4753004;30;20138;-65
2023/12/29 10:54:23;;;;;;;3.47;0.45;;;12.00;99.90;;;;;;4766005;30;20048;-65
2023/12/29 10:57:04;;;;;;;2.15;0.38;;;12.00;99.90;;;;;;4751518;30;20111;-66
2023/12/29 10:59:30;;;;;;;1.20;0.30;;;12.00;99.90;;;;;;4747490;30;20044;-66
2023/12/29 11:01:56;;;;;;;1.58;0.50;;;12.00;99.90;;;;;;4752896;30;20486;-65
2023/12/29 11:04:22;;;;;;;0.70;0.50;;;12.00;99.90;;;;;;4752220;30;20039;-65
2023/12/29 11:06:51;;;;;;;0.65;0.32;;;12.10;99.90;;;;;;4762379;30;20044;-65
2023/12/29 11:09:36;;;;;;;0.60;0.57;;;12.00;99.90;;;;;;4798481;29;20036;-65
2023/12/29 11:12:05;;;;;;;0.80;0.50;;;12.00;99.90;;;;;;4787225;29;20436;-64
2023/12/29 11:14:32;;;;;;;1.48;0.68;;;12.20;99.90;;;;;;4787553;29;20039;-65
2023/12/29 11:17:00;;;;;;;0.43;0.38;;;12.20;99.90;;;;;;4788126;29;20038;-64
2023/12/29 11:19:29;;;;;;;0.77;0.60;;;12.30;99.90;;;;;;4781480;29;20392;-64
2023/12/29 11:21:58;;;;;;;5.15;0.43;;;12.30;99.90;;;;;;4786872;29;20161;-64
2023/12/29 11:24:24;;;;;;;0.65;0.45;;;12.40;99.90;;;;;;4787711;29;20142;-65
2023/12/29 11:26:50;;;;;;;2.55;0.52;;;12.50;99.90;;;;;;4786959;29;20552;-65
2023/12/29 11:29:16;;;;;;;1.55;0.77;;;12.50;99.90;;;;;;4780457;29;20742;-64
2023/12/29 11:31:48;;;;;;;1.00;0.40;;;12.60;99.90;;;;;;4787917;29;20338;-65
2023/12/29 11:34:25;;;;;;;1.73;0.40;;;12.50;99.90;;;;;;4781231;30;20560;-64
2023/12/29 11:37:01;;;;;;;5.10;0.50;;;12.50;99.90;;;;;;4786993;29;20051;-64
2023/12/29 11:39:52;;;;;;;1.75;0.82;;;12.40;99.90;;;;;;4780963;29;20036;-65
2023/12/29 11:42:27;;;;;;;1.80;0.60;;;12.40;99.90;;;;;;4772401;30;20118;-64
2023/12/29 11:44:52;;;;;;;5.95;0.80;;;12.30;99.90;;;;;;4780792;29;20081;-64
2023/12/29 11:47:38;;;;;;;0.38;0.32;;;12.40;99.90;;;;;;4787659;29;20047;-64
2023/12/29 11:50:08;;;;;;;0.95;0.52;;;12.40;99.90;;;;;;4786182;29;20114;-64
2023/12/29 11:52:39;;;;;;;0.40;0.30;;;12.40;99.90;;;;;;4786279;29;20027;-64
2023/12/29 11:55:12;;;;;;;0.88;0.60;;;12.50;99.90;;;;;;4800850;29;20031;-65
2023/12/29 11:57:40;;;;;;;1.42;0.75;;;12.50;99.90;;;;;;4786108;29;20427;-65
2023/12/29 12:00:07;;;;;;;1.77;0.70;;;12.50;99.90;;;;;;4780790;29;20102;-65
2023/12/29 12:02:33;;;;;;;0.20;0.20;;;12.60;99.90;;;;;;4786260;30;20126;-65
2023/12/29 12:04:59;;;;;;;1.00;0.50;;;12.60;99.90;;;;;;4786918;29;20038;-65
2023/12/29 12:07:25;;;;;;;1.02;0.60;;;12.60;99.90;;;;;;4761177;30;20044;-64
2023/12/29 12:09:52;;;;;;;0.73;0.55;;;12.80;99.90;;;;;;4751512;30;20032;-64
2023/12/29 12:12:41;;;;;;;6.18;0.50;;;13.20;99.90;;;;;;4751449;30;20043;-64
2023/12/29 12:15:30;;;;;;;0.47;0.40;;;13.50;99.90;;;;;;4750665;30;20036;-65
2023/12/29 12:17:57;;;;;;;5.30;2.13;;;13.40;99.90;;;;;;4750668;30;20533;-65
2023/12/29 12:20:28;;;;;;;0.45;0.35;;;13.40;99.90;;;;;;4750669;30;20122;-65
2023/12/29 12:23:15;;;;;;;0.55;0.40;;;13.20;99.90;;;;;;4750425;30;20040;-64
2023/12/29 12:25:43;;;;;;;0.63;0.32;;;13.10;99.90;;;;;;4743991;30;20501;-64
2023/12/29 12:28:10;;;;;;;0.40;0.38;;;13.00;99.90;;;;;;4746303;30;20501;-64
2023/12/29 12:30:36;;;;;;;0.22;0.22;;;12.90;99.90;;;;;;4749246;30;20032;-64
2023/12/29 12:33:04;;;;;;;0.70;0.38;;;12.90;99.90;;;;;;4751237;30;20102;-62
2023/12/29 12:35:30;;;;;;;1.45;0.43;;;12.80;99.90;;;;;;4750597;30;20052;-63
2023/12/29 12:38:24;;;;;;;0.10;0.10;;;12.80;99.90;;;;;;4735171;30;20505;-63
2023/12/29 12:40:50;;;;;;;0.57;0.40;;;12.80;99.90;;;;;;4744628;30;20433;-64
2023/12/29 12:43:17;;;;;;;1.02;0.88;;;12.80;99.90;;;;;;4751089;30;20478;-64
2023/12/29 12:46:00;;;;;;;0.17;0.17;;;12.80;99.90;;;;;;4746994;30;20051;-64
2023/12/29 12:48:35;;;;;;;2.08;0.32;;;12.80;99.90;;;;;;4750603;30;20051;-64
2023/12/29 12:51:03;;;;;;;0.40;0.30;;;12.80;99.90;;;;;;4746738;30;20119;-65
2023/12/29 12:53:29;;;;;;;3.63;0.43;;;12.80;99.90;;;;;;4748976;30;20036;-65
2023/12/29 12:55:55;;;;;;;0.60;0.50;;;12.80;99.90;;;;;;4744746;30;20545;-65
2023/12/29 12:58:21;;;;;;;0.68;0.52;;;12.80;99.90;;;;;;4745845;30;20114;-67
2023/12/29 13:00:47;;;;;;;0.10;0.10;;;12.80;99.90;;;;;;4749809;30;20028;-65
2023/12/29 13:03:15;;;;;;;0.40;0.30;;;12.80;99.90;;;;;;4732763;30;20044;-66
2023/12/29 13:05:41;;;;;;;1.20;0.77;;;12.70;99.90;;;;;;4755870;30;20501;-66
2023/12/29 13:08:07;;;;;;;1.40;0.50;;;12.70;99.90;;;;;;4756669;30;20032;-65
2023/12/29 13:10:33;;;;;;;0.28;0.20;;;12.80;99.90;;;;;;4758878;30;20040;-66
2023/12/29 13:12:59;;;;;;;0.30;0.30;;;12.80;99.90;;;;;;4763113;30;20036;-66
2023/12/29 13:15:25;;;;;;;0.40;0.30;;;12.80;99.90;;;;;;4758782;30;20043;-64
2023/12/29 13:17:54;;;;;;;0.52;0.40;;;12.90;99.90;;;;;;4757763;30;20115;-64
2023/12/29 13:20:21;;;;;;;0.70;0.45;;;13.00;99.90;;;;;;4758265;30;20036;-65
2023/12/29 13:22:51;;;;;;;0.40;0.38;;;12.90;99.90;;;;;;4747502;30;20036;-64
2023/12/29 13:25:27;;;;;;;1.55;0.63;;;12.80;99.90;;;;;;4756263;30;20052;-66
2023/12/29 13:27:54;;;;;;;1.05;0.50;;;12.60;99.90;;;;;;4756859;30;20127;-65
2023/12/29 13:30:21;;;;;;;1.95;1.00;;;12.70;99.90;;;;;;4758167;30;20497;-65
2023/12/29 13:32:50;;;;;;;1.02;0.57;;;12.60;99.90;;;;;;4748728;30;20035;-66
2023/12/29 13:35:35;;;;;;;1.33;0.70;;;12.50;99.90;;;;;;4744116;30;20052;-65
2023/12/29 13:38:20;;;;;;;0.60;0.55;;;12.50;99.90;;;;;;4754285;30;20489;-65
2023/12/29 13:41:07;;;;;;;4.93;0.88;;;12.40;99.90;;;;;;4755864;30;20028;-65
2023/12/29 13:43:35;;;;;;;1.85;0.55;;;12.50;99.90;;;;;;4758250;30;20044;-65